sensor_id;sensor_type;location;lat;lon;timestamp;pressure;altitude;pressure_sealevel;temperature;humidity
56582;BME280;42463;52.214;21.238;2023-06-14T00:01:02;100519.70;;;14.79;72.88
56582;BME280;42463;52.214;21.238;2023-06-14T00:03:19;100518.55;;;14.79;72.87
56582;BME280;42463;52.214;21.238;2023-06-14T00:05:25;100517.45;;;14.80;72.82
56582;BME280;42463;52.214;21.238;2023-06-14T00:07:34;100514.73;;;14.80;72.92
56582;BME280;42463;52.214;21.238;2023-06-14T00:09:39;100509.91;;;14.81;72.67
56582;BME280;42463;52.214;21.238;2023-06-14T00:11:43;100507.19;;;14.82;72.79
56582;BME280;42463;52.214;21.238;2023-06-14T00:13:47;100511.76;;;14.84;72.75
56582;BME280;42463;52.214;21.238;2023-06-14T00:15:51;100508.52;;;14.85;72.56
56582;BME280;42463;52.214;21.238;2023-06-14T00:17:58;100508.19;;;14.87;72.70
56582;BME280;42463;52.214;21.238;2023-06-14T00:20:04;100508.56;;;14.89;72.66
56582;BME280;42463;52.214;21.238;2023-06-14T00:22:10;100504.73;;;14.90;72.48
56582;BME280;42463;52.214;21.238;2023-06-14T00:24:15;100502.81;;;14.91;72.43
56582;BME280;42463;52.214;21.238;2023-06-14T00:26:19;100506.52;;;14.92;72.48
56582;BME280;42463;52.214;21.238;2023-06-14T00:28:23;100510.18;;;14.93;72.47
56582;BME280;42463;52.214;21.238;2023-06-14T00:30:27;100508.77;;;14.92;72.29
56582;BME280;42463;52.214;21.238;2023-06-14T00:32:33;100510.46;;;14.90;72.17
56582;BME280;42463;52.214;21.238;2023-06-14T00:34:37;100504.08;;;14.89;72.28
56582;BME280;42463;52.214;21.238;2023-06-14T00:36:41;100501.83;;;14.91;72.23
56582;BME280;42463;52.214;21.238;2023-06-14T00:38:45;100502.44;;;14.92;72.23
56582;BME280;42463;52.214;21.238;2023-06-14T00:40:50;100504.56;;;14.91;72.23
56582;BME280;42463;52.214;21.238;2023-06-14T00:42:54;100497.25;;;14.90;72.22
56582;BME280;42463;52.214;21.238;2023-06-14T00:44:59;100497.47;;;14.90;72.25
56582;BME280;42463;52.214;21.238;2023-06-14T00:47:04;100496.21;;;14.90;72.32
56582;BME280;42463;52.214;21.238;2023-06-14T00:49:08;100498.51;;;14.90;72.28
56582;BME280;42463;52.214;21.238;2023-06-14T00:51:13;100494.62;;;14.90;72.23
56582;BME280;42463;52.214;21.238;2023-06-14T00:53:17;100494.63;;;14.89;72.12
56582;BME280;42463;52.214;21.238;2023-06-14T00:55:23;100490.05;;;14.88;72.20
56582;BME280;42463;52.214;21.238;2023-06-14T00:57:27;100489.65;;;14.90;72.18
56582;BME280;42463;52.214;21.238;2023-06-14T00:59:32;100488.56;;;14.89;71.97
56582;BME280;42463;52.214;21.238;2023-06-14T01:01:46;100488.13;;;14.89;72.11
56582;BME280;42463;52.214;21.238;2023-06-14T01:03:51;100489.66;;;14.89;72.10
56582;BME280;42463;52.214;21.238;2023-06-14T01:05:59;100489.00;;;14.90;72.43
56582;BME280;42463;52.214;21.238;2023-06-14T01:08:12;100488.18;;;14.90;72.10
56582;BME280;42463;52.214;21.238;2023-06-14T01:10:28;100487.04;;;14.89;72.17
56582;BME280;42463;52.214;21.238;2023-06-14T01:12:37;100492.01;;;14.90;72.36
56582;BME280;42463;52.214;21.238;2023-06-14T01:14:43;100494.07;;;14.91;72.04
56582;BME280;42463;52.214;21.238;2023-06-14T01:16:48;100490.19;;;14.92;72.23
56582;BME280;42463;52.214;21.238;2023-06-14T01:18:57;100489.75;;;14.92;72.16
56582;BME280;42463;52.214;21.238;2023-06-14T01:21:02;100487.09;;;14.91;72.23
56582;BME280;42463;52.214;21.238;2023-06-14T01:23:08;100484.15;;;14.89;72.19
56582;BME280;42463;52.214;21.238;2023-06-14T01:25:12;100482.03;;;14.86;72.30
56582;BME280;42463;52.214;21.238;2023-06-14T01:27:17;100483.63;;;14.83;72.23
56582;BME280;42463;52.214;21.238;2023-06-14T01:29:21;100480.86;;;14.79;72.32
56582;BME280;42463;52.214;21.238;2023-06-14T01:31:26;100482.11;;;14.79;72.61
56582;BME280;42463;52.214;21.238;2023-06-14T01:33:32;100480.21;;;14.78;72.64
56582;BME280;42463;52.214;21.238;2023-06-14T01:35:37;100476.83;;;14.77;72.88
56582;BME280;42463;52.214;21.238;2023-06-14T01:37:41;100479.62;;;14.75;72.88
56582;BME280;42463;52.214;21.238;2023-06-14T01:39:45;100477.89;;;14.73;72.83
56582;BME280;42463;52.214;21.238;2023-06-14T01:41:51;100474.23;;;14.71;72.89
56582;BME280;42463;52.214;21.238;2023-06-14T01:43:55;100477.96;;;14.69;73.04
56582;BME280;42463;52.214;21.238;2023-06-14T01:46:00;100481.67;;;14.69;73.05
56582;BME280;42463;52.214;21.238;2023-06-14T01:48:05;100481.78;;;14.70;73.05
56582;BME280;42463;52.214;21.238;2023-06-14T01:50:11;100481.83;;;14.73;73.36
56582;BME280;42463;52.214;21.238;2023-06-14T01:52:15;100484.98;;;14.75;73.21
56582;BME280;42463;52.214;21.238;2023-06-14T01:54:22;100484.48;;;14.76;73.16
56582;BME280;42463;52.214;21.238;2023-06-14T01:56:28;100491.58;;;14.78;73.09
56582;BME280;42463;52.214;21.238;2023-06-14T01:58:32;100487.48;;;14.79;73.09
56582;BME280;42463;52.214;21.238;2023-06-14T02:00:37;100485.50;;;14.81;73.20
56582;BME280;42463;52.214;21.238;2023-06-14T02:02:41;100478.23;;;14.81;73.06
56582;BME280;42463;52.214;21.238;2023-06-14T02:04:46;100474.96;;;14.80;73.09
56582;BME280;42463;52.214;21.238;2023-06-14T02:06:50;100474.63;;;14.79;72.95
56582;BME280;42463;52.214;21.238;2023-06-14T02:08:54;100476.29;;;14.77;72.94
56582;BME280;42463;52.214;21.238;2023-06-14T02:10:58;100475.57;;;14.78;73.02
56582;BME280;42463;52.214;21.238;2023-06-14T02:13:02;100479.66;;;14.80;73.03
56582;BME280;42463;52.214;21.238;2023-06-14T02:15:08;100477.41;;;14.80;73.09
56582;BME280;42463;52.214;21.238;2023-06-14T02:17:12;100477.35;;;14.82;73.14
56582;BME280;42463;52.214;21.238;2023-06-14T02:19:17;100475.83;;;14.82;72.94
56582;BME280;42463;52.214;21.238;2023-06-14T02:21:21;100475.92;;;14.81;73.00
56582;BME280;42463;52.214;21.238;2023-06-14T02:23:25;100477.70;;;14.80;72.86
56582;BME280;42463;52.214;21.238;2023-06-14T02:25:29;100475.73;;;14.79;72.90
56582;BME280;42463;52.214;21.238;2023-06-14T02:27:33;100476.45;;;14.78;72.96
56582;BME280;42463;52.214;21.238;2023-06-14T02:29:37;100472.08;;;14.77;72.96
56582;BME280;42463;52.214;21.238;2023-06-14T02:31:41;100471.70;;;14.76;73.15
56582;BME280;42463;52.214;21.238;2023-06-14T02:33:45;100467.77;;;14.75;73.27
56582;BME280;42463;52.214;21.238;2023-06-14T02:35:50;100467.45;;;14.74;73.28
56582;BME280;42463;52.214;21.238;2023-06-14T02:37:55;100470.14;;;14.73;73.29
56582;BME280;42463;52.214;21.238;2023-06-14T02:40:00;100468.33;;;14.74;73.39
56582;BME280;42463;52.214;21.238;2023-06-14T02:42:04;100470.29;;;14.76;73.30
56582;BME280;42463;52.214;21.238;2023-06-14T02:44:09;100467.39;;;14.76;73.45
56582;BME280;42463;52.214;21.238;2023-06-14T02:46:14;100465.42;;;14.75;73.57
56582;BME280;42463;52.214;21.238;2023-06-14T02:48:18;100467.18;;;14.74;73.46
56582;BME280;42463;52.214;21.238;2023-06-14T02:50:22;100470.73;;;14.74;73.45
56582;BME280;42463;52.214;21.238;2023-06-14T02:52:27;100467.77;;;14.75;73.57
56582;BME280;42463;52.214;21.238;2023-06-14T02:54:30;100470.27;;;14.77;73.40
56582;BME280;42463;52.214;21.238;2023-06-14T02:56:35;100474.86;;;14.77;73.62
56582;BME280;42463;52.214;21.238;2023-06-14T02:58:39;100472.61;;;14.80;73.76
56582;BME280;42463;52.214;21.238;2023-06-14T03:00:43;100470.64;;;14.81;73.52
56582;BME280;42463;52.214;21.238;2023-06-14T03:02:48;100473.69;;;14.83;73.35
56582;BME280;42463;52.214;21.238;2023-06-14T03:04:54;100469.54;;;14.83;73.27
56582;BME280;42463;52.214;21.238;2023-06-14T03:06:59;100469.20;;;14.84;73.15
56582;BME280;42463;52.214;21.238;2023-06-14T03:09:06;100465.48;;;14.85;73.37
56582;BME280;42463;52.214;21.238;2023-06-14T03:11:13;100462.75;;;14.86;73.24
56582;BME280;42463;52.214;21.238;2023-06-14T03:13:17;100456.23;;;14.86;73.29
56582;BME280;42463;52.214;21.238;2023-06-14T03:15:24;100456.13;;;14.86;73.25
56582;BME280;42463;52.214;21.238;2023-06-14T03:17:30;100457.45;;;14.85;73.27
56582;BME280;42463;52.214;21.238;2023-06-14T03:19:37;100458.89;;;14.83;73.23
56582;BME280;42463;52.214;21.238;2023-06-14T03:21:41;100461.29;;;14.82;73.54
56582;BME280;42463;52.214;21.238;2023-06-14T03:23:47;100462.60;;;14.84;73.78
56582;BME280;42463;52.214;21.238;2023-06-14T03:25:53;100462.70;;;14.85;73.84
56582;BME280;42463;52.214;21.238;2023-06-14T03:27:57;100457.01;;;14.86;73.71
56582;BME280;42463;52.214;21.238;2023-06-14T03:30:01;100455.85;;;14.87;73.61
56582;BME280;42463;52.214;21.238;2023-06-14T03:32:08;100458.42;;;14.87;73.60
56582;BME280;42463;52.214;21.238;2023-06-14T03:34:14;100460.23;;;14.86;73.48
56582;BME280;42463;52.214;21.238;2023-06-14T03:36:18;100457.11;;;14.87;73.88
56582;BME280;42463;52.214;21.238;2023-06-14T03:38:23;100453.61;;;14.89;73.75
56582;BME280;42463;52.214;21.238;2023-06-14T03:40:27;100452.95;;;14.89;73.71
56582;BME280;42463;52.214;21.238;2023-06-14T03:42:37;100453.36;;;14.92;73.76
56582;BME280;42463;52.214;21.238;2023-06-14T03:44:42;100449.86;;;14.94;73.75
56582;BME280;42463;52.214;21.238;2023-06-14T03:46:46;100452.52;;;14.97;73.48
56582;BME280;42463;52.214;21.238;2023-06-14T03:48:51;100451.37;;;14.98;73.73
56582;BME280;42463;52.214;21.238;2023-06-14T03:50:55;100447.10;;;14.99;73.29
56582;BME280;42463;52.214;21.238;2023-06-14T03:52:59;100449.06;;;14.99;73.39
56582;BME280;42463;52.214;21.238;2023-06-14T03:55:05;100448.91;;;14.97;73.49
56582;BME280;42463;52.214;21.238;2023-06-14T03:57:10;100448.80;;;14.97;73.61
56582;BME280;42463;52.214;21.238;2023-06-14T03:59:17;100452.41;;;14.97;73.68
56582;BME280;42463;52.214;21.238;2023-06-14T04:01:21;100454.65;;;14.97;73.54
56582;BME280;42463;52.214;21.238;2023-06-14T04:03:34;100459.08;;;14.95;73.66
56582;BME280;42463;52.214;21.238;2023-06-14T04:05:39;100461.61;;;14.95;73.75
56582;BME280;42463;52.214;21.238;2023-06-14T04:07:45;100467.71;;;14.95;73.63
56582;BME280;42463;52.214;21.238;2023-06-14T04:09:51;100473.23;;;14.96;73.53
56582;BME280;42463;52.214;21.238;2023-06-14T04:11:55;100471.89;;;14.99;73.88
56582;BME280;42463;52.214;21.238;2023-06-14T04:14:01;100472.44;;;15.01;73.90
56582;BME280;42463;52.214;21.238;2023-06-14T04:16:05;100468.59;;;15.04;73.74
56582;BME280;42463;52.214;21.238;2023-06-14T04:18:11;100468.59;;;15.07;73.69
56582;BME280;42463;52.214;21.238;2023-06-14T04:20:16;100467.98;;;15.08;73.72
56582;BME280;42463;52.214;21.238;2023-06-14T04:22:20;100470.52;;;15.10;73.61
56582;BME280;42463;52.214;21.238;2023-06-14T04:24:25;100467.72;;;15.13;73.84
56582;BME280;42463;52.214;21.238;2023-06-14T04:26:35;100467.66;;;15.15;73.54
56582;BME280;42463;52.214;21.238;2023-06-14T04:28:39;100464.54;;;15.14;73.58
56582;BME280;42463;52.214;21.238;2023-06-14T04:30:44;100459.09;;;15.12;73.54
56582;BME280;42463;52.214;21.238;2023-06-14T04:32:51;100459.86;;;15.11;73.54
56582;BME280;42463;52.214;21.238;2023-06-14T04:34:56;100459.48;;;15.11;73.54
56582;BME280;42463;52.214;21.238;2023-06-14T04:37:03;100462.69;;;15.14;73.77
56582;BME280;42463;52.214;21.238;2023-06-14T04:39:13;100461.46;;;15.16;73.93
56582;BME280;42463;52.214;21.238;2023-06-14T04:41:17;100459.59;;;15.20;73.94
56582;BME280;42463;52.214;21.238;2023-06-14T04:43:22;100462.63;;;15.23;74.01
56582;BME280;42463;52.214;21.238;2023-06-14T04:45:32;100458.61;;;15.26;73.92
56582;BME280;42463;52.214;21.238;2023-06-14T04:47:37;100457.40;;;15.27;73.86
56582;BME280;42463;52.214;21.238;2023-06-14T04:49:42;100459.74;;;15.28;73.91
56582;BME280;42463;52.214;21.238;2023-06-14T04:51:47;100457.44;;;15.30;73.87
56582;BME280;42463;52.214;21.238;2023-06-14T04:53:54;100462.39;;;15.32;73.94
56582;BME280;42463;52.214;21.238;2023-06-14T04:56:00;100460.36;;;15.34;73.76
56582;BME280;42463;52.214;21.238;2023-06-14T04:58:07;100468.55;;;15.35;73.73
56582;BME280;42463;52.214;21.238;2023-06-14T05:00:12;100471.01;;;15.35;73.59
56582;BME280;42463;52.214;21.238;2023-06-14T05:02:16;100471.92;;;15.38;73.92
56582;BME280;42463;52.214;21.238;2023-06-14T05:04:21;100470.98;;;15.40;73.72
56582;BME280;42463;52.214;21.238;2023-06-14T05:06:26;100470.48;;;15.41;73.47
56582;BME280;42463;52.214;21.238;2023-06-14T05:08:30;100469.92;;;15.41;73.47
56582;BME280;42463;52.214;21.238;2023-06-14T05:10:34;100468.72;;;15.41;73.65
56582;BME280;42463;52.214;21.238;2023-06-14T05:12:39;100475.61;;;15.41;73.56
56582;BME280;42463;52.214;21.238;2023-06-14T05:14:45;100477.52;;;15.42;73.58
56582;BME280;42463;52.214;21.238;2023-06-14T05:16:49;100479.59;;;15.42;73.68
56582;BME280;42463;52.214;21.238;2023-06-14T05:18:53;100479.42;;;15.43;74.00
56582;BME280;42463;52.214;21.238;2023-06-14T05:20:57;100481.98;;;15.45;73.76
56582;BME280;42463;52.214;21.238;2023-06-14T05:23:02;100480.00;;;15.47;74.10
56582;BME280;42463;52.214;21.238;2023-06-14T05:25:07;100482.93;;;15.49;73.76
56582;BME280;42463;52.214;21.238;2023-06-14T05:27:11;100484.34;;;15.51;73.48
56582;BME280;42463;52.214;21.238;2023-06-14T05:29:15;100481.38;;;15.53;73.03
56582;BME280;42463;52.214;21.238;2023-06-14T05:31:19;100482.79;;;15.54;72.95
56582;BME280;42463;52.214;21.238;2023-06-14T05:33:23;100486.70;;;15.56;72.87
56582;BME280;42463;52.214;21.238;2023-06-14T05:35:27;100484.70;;;15.58;73.03
56582;BME280;42463;52.214;21.238;2023-06-14T05:37:31;100485.84;;;15.58;73.20
56582;BME280;42463;52.214;21.238;2023-06-14T05:39:36;100482.23;;;15.58;73.31
56582;BME280;42463;52.214;21.238;2023-06-14T05:41:40;100478.63;;;15.60;73.61
56582;BME280;42463;52.214;21.238;2023-06-14T05:43:44;100480.20;;;15.62;73.39
56582;BME280;42463;52.214;21.238;2023-06-14T05:45:49;100481.16;;;15.65;73.59
56582;BME280;42463;52.214;21.238;2023-06-14T05:47:53;100485.85;;;15.68;73.69
56582;BME280;42463;52.214;21.238;2023-06-14T05:49:57;100481.73;;;15.69;73.74
56582;BME280;42463;52.214;21.238;2023-06-14T05:52:01;100483.03;;;15.72;73.64
56582;BME280;42463;52.214;21.238;2023-06-14T05:54:05;100484.38;;;15.75;73.85
56582;BME280;42463;52.214;21.238;2023-06-14T05:56:09;100484.74;;;15.76;73.61
56582;BME280;42463;52.214;21.238;2023-06-14T05:58:13;100485.16;;;15.78;73.63
56582;BME280;42463;52.214;21.238;2023-06-14T06:00:18;100486.95;;;15.79;73.52
56582;BME280;42463;52.214;21.238;2023-06-14T06:02:23;100486.95;;;15.79;73.33
56582;BME280;42463;52.214;21.238;2023-06-14T06:04:27;100480.50;;;15.79;73.25
56582;BME280;42463;52.214;21.238;2023-06-14T06:06:31;100479.02;;;15.80;73.20
56582;BME280;42463;52.214;21.238;2023-06-14T06:08:35;100477.48;;;15.81;73.31
56582;BME280;42463;52.214;21.238;2023-06-14T06:10:39;100477.52;;;15.81;73.42
56582;BME280;42463;52.214;21.238;2023-06-14T06:12:43;100475.00;;;15.82;73.43
56582;BME280;42463;52.214;21.238;2023-06-14T06:14:48;100480.35;;;15.84;73.71
56582;BME280;42463;52.214;21.238;2023-06-14T06:16:52;100486.50;;;15.87;73.75
56582;BME280;42463;52.214;21.238;2023-06-14T06:18:56;100488.45;;;15.89;73.89
56582;BME280;42463;52.214;21.238;2023-06-14T06:21:00;100488.20;;;15.91;73.61
56582;BME280;42463;52.214;21.238;2023-06-14T06:23:05;100492.02;;;15.93;73.73
56582;BME280;42463;52.214;21.238;2023-06-14T06:25:10;100491.11;;;15.98;74.06
56582;BME280;42463;52.214;21.238;2023-06-14T06:27:14;100495.48;;;16.03;74.19
56582;BME280;42463;52.214;21.238;2023-06-14T06:29:19;100498.56;;;16.07;74.03
56582;BME280;42463;52.214;21.238;2023-06-14T06:31:23;100496.70;;;16.12;74.05
56582;BME280;42463;52.214;21.238;2023-06-14T06:33:30;100495.51;;;16.18;73.77
56582;BME280;42463;52.214;21.238;2023-06-14T06:35:34;100491.46;;;16.21;73.36
56582;BME280;42463;52.214;21.238;2023-06-14T06:37:38;100489.45;;;16.25;73.31
56582;BME280;42463;52.214;21.238;2023-06-14T06:39:42;100491.23;;;16.27;73.27
56582;BME280;42463;52.214;21.238;2023-06-14T06:41:46;100491.86;;;16.30;73.15
56582;BME280;42463;52.214;21.238;2023-06-14T06:43:51;100493.92;;;16.33;73.08
56582;BME280;42463;52.214;21.238;2023-06-14T06:45:56;100496.08;;;16.36;73.13
56582;BME280;42463;52.214;21.238;2023-06-14T06:48:00;100496.35;;;16.40;73.14
56582;BME280;42463;52.214;21.238;2023-06-14T06:50:05;100496.20;;;16.44;73.33
56582;BME280;42463;52.214;21.238;2023-06-14T06:52:10;100499.70;;;16.48;73.02
56582;BME280;42463;52.214;21.238;2023-06-14T06:54:15;100498.08;;;16.52;72.89
56582;BME280;42463;52.214;21.238;2023-06-14T06:56:19;100500.30;;;16.55;72.69
56582;BME280;42463;52.214;21.238;2023-06-14T06:58:24;100498.67;;;16.57;72.56
56582;BME280;42463;52.214;21.238;2023-06-14T07:00:29;100498.02;;;16.62;72.50
56582;BME280;42463;52.214;21.238;2023-06-14T07:02:38;100498.45;;;16.65;72.42
56582;BME280;42463;52.214;21.238;2023-06-14T07:04:42;100499.37;;;16.69;72.43
56582;BME280;42463;52.214;21.238;2023-06-14T07:06:46;100497.67;;;16.73;72.28
56582;BME280;42463;52.214;21.238;2023-06-14T07:08:51;100504.73;;;16.76;71.94
56582;BME280;42463;52.214;21.238;2023-06-14T07:10:55;100504.16;;;16.80;71.92
56582;BME280;42463;52.214;21.238;2023-06-14T07:12:59;100505.20;;;16.83;72.02
56582;BME280;42463;52.214;21.238;2023-06-14T07:15:04;100501.29;;;16.85;72.07
56582;BME280;42463;52.214;21.238;2023-06-14T07:17:09;100502.98;;;16.89;71.73
56582;BME280;42463;52.214;21.238;2023-06-14T07:19:13;100504.30;;;16.90;71.77
56582;BME280;42463;52.214;21.238;2023-06-14T07:21:17;100502.52;;;16.91;71.46
56582;BME280;42463;52.214;21.238;2023-06-14T07:23:22;100502.42;;;16.94;71.46
56582;BME280;42463;52.214;21.238;2023-06-14T07:25:26;100505.81;;;17.00;71.42
56582;BME280;42463;52.214;21.238;2023-06-14T07:27:30;100507.14;;;17.02;71.35
56582;BME280;42463;52.214;21.238;2023-06-14T07:29:34;100507.44;;;17.05;71.23
56582;BME280;42463;52.214;21.238;2023-06-14T07:31:38;100505.88;;;17.11;70.78
56582;BME280;42463;52.214;21.238;2023-06-14T07:33:42;100511.58;;;17.19;70.52
56582;BME280;42463;52.214;21.238;2023-06-14T07:35:46;100508.86;;;17.24;70.78
56582;BME280;42463;52.214;21.238;2023-06-14T07:37:50;100509.92;;;17.27;70.60
56582;BME280;42463;52.214;21.238;2023-06-14T07:39:55;100513.23;;;17.33;70.13
56582;BME280;42463;52.214;21.238;2023-06-14T07:41:59;100509.28;;;17.37;69.75
56582;BME280;42463;52.214;21.238;2023-06-14T07:44:04;100506.89;;;17.43;69.87
56582;BME280;42463;52.214;21.238;2023-06-14T07:46:08;100508.59;;;17.46;70.41
56582;BME280;42463;52.214;21.238;2023-06-14T07:48:12;100511.43;;;17.50;70.65
56582;BME280;42463;52.214;21.238;2023-06-14T07:50:17;100514.91;;;17.52;70.19
56582;BME280;42463;52.214;21.238;2023-06-14T07:52:21;100518.81;;;17.59;70.23
56582;BME280;42463;52.214;21.238;2023-06-14T07:54:25;100515.38;;;17.65;70.38
56582;BME280;42463;52.214;21.238;2023-06-14T07:56:30;100515.83;;;17.71;69.48
56582;BME280;42463;52.214;21.238;2023-06-14T07:58:34;100513.52;;;17.77;68.91
56582;BME280;42463;52.214;21.238;2023-06-14T08:00:39;100513.16;;;17.83;68.80
56582;BME280;42463;52.214;21.238;2023-06-14T08:02:43;100516.70;;;17.88;68.84
56582;BME280;42463;52.214;21.238;2023-06-14T08:04:47;100519.94;;;17.91;69.06
56582;BME280;42463;52.214;21.238;2023-06-14T08:06:52;100520.77;;;17.94;68.50
56582;BME280;42463;52.214;21.238;2023-06-14T08:08:56;100517.04;;;17.97;68.11
56582;BME280;42463;52.214;21.238;2023-06-14T08:11:00;100520.94;;;18.00;67.80
56582;BME280;42463;52.214;21.238;2023-06-14T08:13:04;100519.73;;;18.03;67.48
56582;BME280;42463;52.214;21.238;2023-06-14T08:15:09;100518.89;;;18.04;66.96
56582;BME280;42463;52.214;21.238;2023-06-14T08:17:13;100521.55;;;18.08;66.64
56582;BME280;42463;52.214;21.238;2023-06-14T08:19:17;100522.55;;;18.11;66.81
56582;BME280;42463;52.214;21.238;2023-06-14T08:21:22;100527.77;;;18.15;66.33
56582;BME280;42463;52.214;21.238;2023-06-14T08:23:26;100524.85;;;18.17;65.92
56582;BME280;42463;52.214;21.238;2023-06-14T08:25:30;100526.86;;;18.19;65.80
56582;BME280;42463;52.214;21.238;2023-06-14T08:27:35;100526.59;;;18.22;66.07
56582;BME280;42463;52.214;21.238;2023-06-14T08:29:39;100523.94;;;18.23;66.62
56582;BME280;42463;52.214;21.238;2023-06-14T08:31:43;100523.50;;;18.22;67.15
56582;BME280;42463;52.214;21.238;2023-06-14T08:33:47;100522.42;;;18.22;67.06
56582;BME280;42463;52.214;21.238;2023-06-14T08:35:51;100522.80;;;18.22;67.23
56582;BME280;42463;52.214;21.238;2023-06-14T08:37:55;100524.09;;;18.20;67.05
56582;BME280;42463;52.214;21.238;2023-06-14T08:40:00;100519.37;;;18.20;66.90
56582;BME280;42463;52.214;21.238;2023-06-14T08:42:05;100521.89;;;18.20;67.06
56582;BME280;42463;52.214;21.238;2023-06-14T08:44:09;100519.66;;;18.22;67.26
56582;BME280;42463;52.214;21.238;2023-06-14T08:46:14;100521.20;;;18.27;67.31
56582;BME280;42463;52.214;21.238;2023-06-14T08:48:23;100522.92;;;18.33;67.03
56582;BME280;42463;52.214;21.238;2023-06-14T08:50:30;100525.67;;;18.38;66.62
56582;BME280;42463;52.214;21.238;2023-06-14T08:52:37;100526.60;;;18.41;66.10
56582;BME280;42463;52.214;21.238;2023-06-14T08:54:43;100524.06;;;18.45;65.88
56582;BME280;42463;52.214;21.238;2023-06-14T08:56:50;100526.60;;;18.50;65.73
56582;BME280;42463;52.214;21.238;2023-06-14T08:58:56;100519.08;;;18.56;65.88
56582;BME280;42463;52.214;21.238;2023-06-14T09:01:06;100521.02;;;18.61;65.67
56582;BME280;42463;52.214;21.238;2023-06-14T09:03:14;100516.40;;;18.67;65.51
56582;BME280;42463;52.214;21.238;2023-06-14T09:05:21;100516.33;;;18.71;65.03
56582;BME280;42463;52.214;21.238;2023-06-14T09:07:27;100516.50;;;18.77;65.10
56582;BME280;42463;52.214;21.238;2023-06-14T09:09:46;100517.85;;;18.81;64.71
56582;BME280;42463;52.214;21.238;2023-06-14T09:11:50;100517.33;;;18.85;64.13
56582;BME280;42463;52.214;21.238;2023-06-14T09:13:55;100517.14;;;18.87;64.14
56582;BME280;42463;52.214;21.238;2023-06-14T09:16:02;100516.68;;;18.90;64.18
56582;BME280;42463;52.214;21.238;2023-06-14T09:18:10;100513.79;;;18.91;64.20
56582;BME280;42463;52.214;21.238;2023-06-14T09:20:24;100512.94;;;18.95;64.80
56582;BME280;42463;52.214;21.238;2023-06-14T09:22:32;100515.27;;;18.99;65.16
56582;BME280;42463;52.214;21.238;2023-06-14T09:24:43;100515.88;;;19.06;64.65
56582;BME280;42463;52.214;21.238;2023-06-14T09:26:53;100511.80;;;19.12;64.08
56582;BME280;42463;52.214;21.238;2023-06-14T09:28:58;100513.96;;;19.16;63.81
56582;BME280;42463;52.214;21.238;2023-06-14T09:31:07;100511.35;;;19.17;63.78
56582;BME280;42463;52.214;21.238;2023-06-14T09:33:17;100513.10;;;19.20;63.55
56582;BME280;42463;52.214;21.238;2023-06-14T09:35:22;100510.20;;;19.22;63.05
56582;BME280;42463;52.214;21.238;2023-06-14T09:37:29;100512.57;;;19.26;62.79
56582;BME280;42463;52.214;21.238;2023-06-14T09:39:33;100514.20;;;19.32;62.57
56582;BME280;42463;52.214;21.238;2023-06-14T09:41:38;100513.14;;;19.37;62.31
56582;BME280;42463;52.214;21.238;2023-06-14T09:43:43;100513.58;;;19.40;62.29
56582;BME280;42463;52.214;21.238;2023-06-14T09:45:48;100513.23;;;19.43;61.07
56582;BME280;42463;52.214;21.238;2023-06-14T09:47:54;100510.17;;;19.44;60.33
56582;BME280;42463;52.214;21.238;2023-06-14T09:49:58;100511.84;;;19.46;59.52
56582;BME280;42463;52.214;21.238;2023-06-14T09:52:03;100511.94;;;19.46;59.43
56582;BME280;42463;52.214;21.238;2023-06-14T09:54:08;100514.06;;;19.50;59.31
56582;BME280;42463;52.214;21.238;2023-06-14T09:56:16;100513.04;;;19.55;59.36
56582;BME280;42463;52.214;21.238;2023-06-14T09:58:24;100513.92;;;19.61;58.93
56582;BME280;42463;52.214;21.238;2023-06-14T10:00:30;100514.64;;;19.66;58.73
56582;BME280;42463;52.214;21.238;2023-06-14T10:02:37;100516.28;;;19.68;58.51
56582;BME280;42463;52.214;21.238;2023-06-14T10:04:43;100511.72;;;19.72;57.85
56582;BME280;42463;52.214;21.238;2023-06-14T10:06:50;100513.42;;;19.75;56.83
56582;BME280;42463;52.214;21.238;2023-06-14T10:08:55;100513.94;;;19.77;56.24
56582;BME280;42463;52.214;21.238;2023-06-14T10:11:02;100511.98;;;19.79;55.74
56582;BME280;42463;52.214;21.238;2023-06-14T10:13:06;100513.39;;;19.82;55.24
56582;BME280;42463;52.214;21.238;2023-06-14T10:15:13;100517.16;;;19.83;55.58
56582;BME280;42463;52.214;21.238;2023-06-14T10:17:22;100517.77;;;19.85;55.45
56582;BME280;42463;52.214;21.238;2023-06-14T10:19:29;100515.98;;;19.86;55.03
56582;BME280;42463;52.214;21.238;2023-06-14T10:21:41;100512.81;;;19.87;55.06
56582;BME280;42463;52.214;21.238;2023-06-14T10:23:47;100517.45;;;19.87;54.87
56582;BME280;42463;52.214;21.238;2023-06-14T10:25:56;100518.90;;;19.86;54.69
56582;BME280;42463;52.214;21.238;2023-06-14T10:28:05;100517.42;;;19.84;54.30
56582;BME280;42463;52.214;21.238;2023-06-14T10:30:18;100519.41;;;19.81;54.10
56582;BME280;42463;52.214;21.238;2023-06-14T10:32:28;100522.92;;;19.79;53.61
56582;BME280;42463;52.214;21.238;2023-06-14T10:34:33;100522.91;;;19.76;53.67
56582;BME280;42463;52.214;21.238;2023-06-14T10:36:37;100526.43;;;19.72;53.96
56582;BME280;42463;52.214;21.238;2023-06-14T10:38:43;100524.76;;;19.68;54.49
56582;BME280;42463;52.214;21.238;2023-06-14T10:40:51;100525.11;;;19.67;54.78
56582;BME280;42463;52.214;21.238;2023-06-14T10:42:56;100525.07;;;19.66;55.16
56582;BME280;42463;52.214;21.238;2023-06-14T10:45:00;100520.99;;;19.67;55.21
56582;BME280;42463;52.214;21.238;2023-06-14T10:47:07;100522.73;;;19.66;55.22